createdAt,value
2022-10-22T00:00:41.526Z,16.30
2022-10-22T00:06:36.299Z,16.30
2022-10-22T00:12:29.819Z,16.30
2022-10-22T00:18:23.182Z,16.20
2022-10-22T00:24:17.846Z,16.20
2022-10-22T00:30:12.111Z,16.30
2022-10-22T00:36:05.740Z,16.30
2022-10-22T00:42:00.966Z,16.30
2022-10-22T00:48:01.126Z,16.30
2022-10-22T00:53:58.157Z,16.30
2022-10-22T00:59:53.012Z,16.20
2022-10-22T01:05:53.970Z,16.30
2022-10-22T01:11:57.646Z,16.30
2022-10-22T01:18:00.670Z,16.30
2022-10-22T01:24:16.422Z,16.20
2022-10-22T01:30:13.602Z,16.30
2022-10-22T01:36:07.555Z,16.20
2022-10-22T01:42:00.577Z,16.30
2022-10-22T01:48:06.801Z,16.30
2022-10-22T01:54:03.973Z,16.30
2022-10-22T02:00:03.711Z,16.30
2022-10-22T02:06:05.828Z,16.30
2022-10-22T02:12:02.266Z,16.20
2022-10-22T02:17:58.202Z,16.10
2022-10-22T02:23:52.984Z,16.10
2022-10-22T02:29:55.308Z,16.20
2022-10-22T02:35:50.443Z,16.10
2022-10-22T02:41:48.597Z,16.10
2022-10-22T02:47:44.170Z,16.00
2022-10-22T02:53:37.580Z,16.00
2022-10-22T02:59:32.624Z,16.00
2022-10-22T03:05:31.358Z,15.90
2022-10-22T03:11:24.715Z,15.90
2022-10-22T03:17:19.418Z,15.90
2022-10-22T03:23:13.810Z,15.90
2022-10-22T03:29:07.382Z,15.80
2022-10-22T03:35:01.732Z,15.80
2022-10-22T03:40:55.196Z,15.80
2022-10-22T03:46:48.515Z,15.80
2022-10-22T03:52:43.121Z,15.80
2022-10-22T03:58:36.358Z,15.80
2022-10-22T04:04:29.685Z,15.80
2022-10-22T04:10:24.322Z,15.70
2022-10-22T04:16:20.284Z,15.60
2022-10-22T04:22:13.620Z,15.60
2022-10-22T04:28:09.078Z,15.80
2022-10-22T04:34:03.340Z,15.80
2022-10-22T04:39:58.182Z,15.70
2022-10-22T04:45:52.712Z,15.70
2022-10-22T04:51:46.047Z,15.60
2022-10-22T04:57:39.593Z,15.60
2022-10-22T05:03:34.511Z,15.70
2022-10-22T05:09:27.865Z,15.70
2022-10-22T05:15:20.899Z,15.60
2022-10-22T05:21:18.043Z,15.60
2022-10-22T05:27:11.482Z,15.60
2022-10-22T05:33:04.886Z,15.50
2022-10-22T05:39:00.191Z,15.50
2022-10-22T05:44:53.092Z,15.50
2022-10-22T05:50:46.240Z,15.40
2022-10-22T05:56:40.605Z,15.40
2022-10-22T06:02:33.950Z,15.40
2022-10-22T06:08:27.456Z,15.40
2022-10-22T06:14:22.872Z,15.40
2022-10-22T06:20:17.038Z,15.50
2022-10-22T06:26:11.813Z,15.40
2022-10-22T06:32:06.610Z,15.40
2022-10-22T06:37:59.515Z,15.30
2022-10-22T06:43:52.422Z,15.40
2022-10-22T06:49:47.287Z,15.30
2022-10-22T06:55:40.645Z,15.30
2022-10-22T07:01:35.538Z,15.20
2022-10-22T07:07:30.264Z,15.30
2022-10-22T07:13:24.023Z,15.30
2022-10-22T07:19:17.326Z,15.40
2022-10-22T07:25:12.308Z,15.40
2022-10-22T07:31:05.278Z,15.30
2022-10-22T07:36:58.594Z,15.40
2022-10-22T07:42:53.329Z,15.40
2022-10-22T07:48:46.646Z,15.40
2022-10-22T07:54:40.134Z,15.40
2022-10-22T08:00:34.882Z,15.40
2022-10-22T08:06:28.207Z,15.40
2022-10-22T08:12:21.794Z,15.40
2022-10-22T08:18:17.207Z,15.60
2022-10-22T08:24:10.771Z,15.70
2022-10-22T08:30:04.947Z,15.70
2022-10-22T08:35:59.809Z,15.80
2022-10-22T08:42:06.333Z,15.90
2022-10-22T08:48:10.926Z,15.90
2022-10-22T08:54:30.220Z,15.90
2022-10-22T09:00:30.113Z,16.00
2022-10-22T09:06:26.137Z,16.00
2022-10-22T09:12:23.376Z,16.10
2022-10-22T09:18:28.508Z,16.20
2022-10-22T09:24:32.978Z,16.20
2022-10-22T09:30:30.418Z,16.40
2022-10-22T09:36:24.734Z,16.50
2022-10-22T09:42:20.097Z,16.70
2022-10-22T09:48:26.729Z,16.90
2022-10-22T09:54:22.784Z,17.00
2022-10-22T10:00:21.473Z,17.20
2022-10-22T10:06:20.060Z,17.40
2022-10-22T10:12:25.833Z,17.60
2022-10-22T10:18:29.195Z,17.80
2022-10-22T10:24:31.265Z,17.90
2022-10-22T10:30:25.695Z,18.20
2022-10-22T10:36:26.226Z,18.60
2022-10-22T10:42:32.301Z,19.20
2022-10-22T10:48:46.753Z,19.20
2022-10-22T10:54:48.349Z,19.20
2022-10-22T11:00:52.016Z,19.60
2022-10-22T11:06:46.989Z,20.10
2022-10-22T11:12:43.895Z,20.20
2022-10-22T11:18:43.373Z,20.70
2022-10-22T11:24:40.996Z,21.20
2022-10-22T11:30:37.261Z,21.30
2022-10-22T11:36:33.762Z,21.10
2022-10-22T11:42:35.097Z,21.70
2022-10-22T11:48:30.905Z,21.80
2022-10-22T11:54:42.745Z,21.80
2022-10-22T12:00:41.717Z,21.80
2022-10-22T12:06:56.211Z,21.80
2022-10-22T12:12:58.199Z,22.00
2022-10-22T12:25:49.221Z,21.60
2022-10-22T12:31:51.473Z,21.60
2022-10-22T12:37:46.831Z,21.60
2022-10-22T12:43:41.078Z,21.50
2022-10-22T12:49:40.109Z,21.60
2022-10-22T12:55:35.903Z,21.30
2022-10-22T13:01:33.492Z,20.90
2022-10-22T13:07:38.860Z,20.60
2022-10-22T13:13:34.742Z,20.60
2022-10-22T13:19:47.546Z,20.40
2022-10-22T13:25:42.339Z,20.20
2022-10-22T13:31:38.198Z,20.00
2022-10-22T13:37:33.154Z,19.90
2022-10-22T13:43:27.941Z,19.80
2022-10-22T13:49:23.759Z,19.80
2022-10-22T13:55:21.098Z,19.70
2022-10-22T14:01:22.038Z,19.70
2022-10-22T14:07:16.864Z,19.70
2022-10-22T14:13:11.893Z,19.70
2022-10-22T14:19:09.533Z,19.70
2022-10-22T14:25:02.470Z,19.70
2022-10-22T14:30:56.185Z,19.50
2022-10-22T14:36:50.790Z,19.70
2022-10-22T14:42:45.618Z,19.80
2022-10-22T14:48:38.894Z,19.80
2022-10-22T14:54:33.551Z,19.90
2022-10-22T15:00:26.996Z,19.80
2022-10-22T15:53:07.213Z,19.00
2022-10-22T15:59:03.251Z,18.90
2022-10-22T16:04:56.200Z,18.80
2022-10-22T16:10:51.015Z,18.40
2022-10-22T16:16:45.368Z,18.00
2022-10-22T16:22:38.382Z,17.90
2022-10-22T16:34:30.922Z,17.90
2022-10-22T16:49:22.331Z,17.90
2022-10-22T16:55:46.053Z,17.90
2022-10-22T17:01:41.193Z,18.00
2022-10-22T17:23:29.349Z,17.90
2022-10-22T17:29:23.127Z,17.90
2022-10-22T17:35:17.163Z,17.90
2022-10-22T17:41:17.777Z,17.90
2022-10-22T18:17:54.174Z,17.60
2022-10-22T18:23:47.983Z,17.50
2022-10-22T18:29:41.299Z,17.50
2022-10-22T18:35:36.335Z,17.40
2022-10-22T18:41:31.094Z,17.30
2022-10-22T18:47:23.950Z,17.20
2022-10-22T18:53:18.584Z,17.30
2022-10-22T18:59:17.954Z,17.20
2022-10-22T19:05:11.338Z,17.10
2022-10-22T19:11:11.278Z,17.00
2022-10-22T19:17:04.605Z,16.90
2022-10-22T19:22:57.947Z,16.90
2022-10-22T19:28:52.666Z,17.00
2022-10-22T19:34:46.809Z,17.00
2022-10-22T19:40:42.310Z,17.00
2022-10-22T19:46:36.682Z,17.10
2022-10-22T19:52:29.686Z,17.00
2022-10-22T19:58:22.948Z,17.00
2022-10-22T20:04:18.642Z,16.90
2022-10-22T20:10:12.352Z,16.90
2022-10-22T20:16:06.471Z,16.90
2022-10-22T20:22:01.146Z,16.90
2022-10-22T20:27:54.401Z,16.80
2022-10-22T20:33:47.722Z,16.90
2022-10-22T20:39:42.417Z,17.00
2022-10-22T20:45:37.049Z,17.00
2022-10-22T21:06:55.607Z,16.90
2022-10-22T21:12:48.891Z,16.90
2022-10-22T21:18:42.523Z,16.90
2022-10-22T21:24:37.093Z,16.90
2022-10-22T21:30:30.352Z,16.90
2022-10-22T21:36:25.378Z,16.90
2022-10-22T21:42:20.047Z,16.90
2022-10-22T21:48:14.173Z,16.90
2022-10-22T21:54:07.525Z,17.00
2022-10-22T22:00:02.207Z,17.00
2022-10-22T22:06:00.065Z,16.90
2022-10-22T22:11:53.488Z,17.00
2022-10-22T22:17:48.247Z,16.90
2022-10-22T22:23:43.812Z,16.80
2022-10-22T22:29:37.148Z,16.90
2022-10-22T22:35:31.853Z,16.80
2022-10-22T22:41:25.459Z,16.70
2022-10-22T22:47:18.698Z,16.70
2022-10-22T22:53:13.332Z,16.70
2022-10-22T22:59:07.441Z,16.70
2022-10-22T23:05:00.719Z,16.70
2022-10-22T23:10:55.330Z,16.60
2022-10-22T23:16:50.821Z,16.50
2022-10-22T23:22:44.250Z,16.60
2022-10-22T23:28:39.179Z,16.50
2022-10-22T23:34:33.570Z,16.50
2022-10-22T23:40:26.843Z,16.50
2022-10-22T23:46:21.514Z,16.50
2022-10-22T23:52:14.470Z,16.40
2022-10-22T23:58:08.106Z,16.40
